Abraham, WV

1:41 PM EST on December 21, 2014 (GMT -0500)
Cool Ridge | Change Station
CLOSE
Current Station
Personal Weather Station
Location: Raleigh Co., WV
Elevation: 2965 ft
Nearby Weather Stations

Elev 2965 ft 37.66 °N, 81.09 °W | Updated 2 seconds ago

Clear
Clear
40.9 °F
Feels Like 38 °F
N
5.0
Wind Variable Wind from SE
Gusts 6.0 mph

Today
High -- | Low -- °F
--% Chance of Precip.
Yesterday
High -- | Low -- °F
Precip. -- in
7:35 AM 5:09 PM
Waning Crescent, 0% visible
Pressure 30.23 in
Visibility 10.0 miles
Clouds Clear
Windchill 38 °F
Dew Point 31 °F
Humidity 68%
Rainfall 0.00 in
Snow Depth Not available.
UV 3 out of 12
Pollen .10 out of 12
Air Quality Not available.
Flu Activity Not available.
METAR KBKW 211751Z AUTO 21004KT 10SM CLR 06/M04 A3017 RMK AO2 SLP235 I6000 T00561039 10056 21033 58021

More Conditions Fewer Conditions

Pressure 30.23 in
Visibility 10.0 miles
Clouds Clear
Windchill 38 °F
Dew Point 31 °F
Humidity 68%
Rainfall 0.00 in
Snow Depth Not available.
UV 3 out of 12
Pollen .10 out of 12
Air Quality Not available.
Flu Activity Not available.
METAR KBKW 211751Z AUTO 21004KT 10SM CLR 06/M04 A3017 RMK AO2 SLP235 I6000 T00561039 10056 21033 58021

More Conditions Fewer Conditions

10-Day Weather Forecast

Almanac

Astronomy

Dec. 21, 2014 Rise Set
Actual Time
Civil Twilight
Nautical Twilight
Astronomical Twilight
Moon
Length of Visible Light
Length of Day
Tomorrow will be .
, % of the Moon is Illuminated

Today's Extremes

State Highs State Lows

Community

WunderPhotos

Upload Photos

1,779,451 photos uploaded!

WunderBlogs® & News

Nearby

Air Quality

  Air Quality AQ Index Pollutant
Not available.

Snow Depth

Station Depth Elevation

Earthquake Activity

City Distance Mag. Time & Date
Minimum magnitude displayed is 2.5.

Coastal Water Temperatures

Place Temperature

Nearby Weather Stations